Time;durP1;ratioP1;P1;durP2;ratioP2;P2;SDS_P1;SDS_P2;PMS_P1;PMS_P2;Temp;Humidity;BMP_temperature;BMP_pressure;BME280_temperature;BME280_humidity;BME280_pressure;Samples;Min_cycle;Max_cycle;Signal;HPM_P1;HPM_P2
2023/03/17 00:00:13;;;;;;;30.53;13.43;;;-1.10;99.90;-2.20;101122;;;;576540;245;24100;-79
2023/03/17 00:02:40;;;;;;;25.63;13.83;;;-1.00;99.90;-2.10;101123;;;;576435;245;24187;-74
2023/03/17 00:05:23;;;;;;;28.03;13.63;;;-1.00;99.90;-2.10;101120;;;;585031;245;24059;-75
2023/03/17 00:07:54;;;;;;;26.37;13.80;;;-0.90;99.90;-2.00;101123;;;;576676;245;24059;-77
2023/03/17 00:10:24;;;;;;;23.43;13.93;;;-0.90;99.90;-2.00;101123;;;;585648;245;24044;-75
2023/03/17 00:12:52;;;;;;;29.10;15.53;;;-0.80;99.90;-2.00;101124;;;;576921;245;24043;-75
2023/03/17 00:15:20;;;;;;;28.73;14.90;;;-0.80;99.90;-1.90;101131;;;;579329;245;24066;-74
2023/03/17 00:17:48;;;;;;;26.13;14.47;;;-0.70;99.90;-1.90;101114;;;;576391;245;24072;-75
2023/03/17 00:20:22;;;;;;;29.00;15.30;;;-0.70;99.90;-1.80;101111;;;;586048;242;24101;-74
2023/03/17 00:22:50;;;;;;;26.37;16.20;;;-0.60;99.90;-1.80;101109;;;;574788;244;24041;-74
2023/03/17 00:25:19;;;;;;;29.30;16.47;;;-0.50;99.90;-1.70;101112;;;;578029;244;24066;-75
2023/03/17 00:27:48;;;;;;;30.67;15.40;;;-0.50;99.90;-1.70;101109;;;;579942;244;24075;-75
2023/03/17 00:30:16;;;;;;;25.03;14.87;;;-0.50;99.90;-1.60;101106;;;;577692;244;24068;-76
2023/03/17 00:32:44;;;;;;;26.53;15.30;;;-0.40;99.90;-1.60;101109;;;;577384;244;24076;-76
2023/03/17 00:35:17;;;;;;;28.47;15.73;;;-0.40;99.90;-1.60;101106;;;;587574;243;25082;-76
2023/03/17 00:37:43;;;;;;;28.47;15.53;;;-0.40;99.90;-1.50;101099;;;;577084;244;24092;-75
2023/03/17 00:40:10;;;;;;;27.30;15.83;;;-0.40;99.90;-1.50;101102;;;;577246;245;24069;-74
2023/03/17 00:42:39;;;;;;;34.13;15.57;;;-0.30;99.90;-1.50;101103;;;;576512;245;24062;-75
2023/03/17 00:45:06;;;;;;;24.00;14.50;;;-0.30;99.90;-1.50;101100;;;;577294;244;24058;-74
2023/03/17 00:47:34;;;;;;;28.27;15.10;;;-0.30;99.90;-1.40;101095;;;;577265;245;24058;-75
2023/03/17 00:50:03;;;;;;;25.53;15.03;;;-0.30;99.90;-1.50;101094;;;;577339;245;24051;-74
2023/03/17 00:52:31;;;;;;;30.03;15.03;;;-0.30;99.90;-1.40;101101;;;;577290;245;24049;-75
2023/03/17 00:54:59;;;;;;;21.30;14.63;;;-0.30;99.90;-1.40;101111;;;;587282;240;25107;-76
2023/03/17 00:57:28;;;;;;;28.70;14.77;;;-0.30;99.90;-1.40;101112;;;;576964;245;24087;-75
2023/03/17 00:59:57;;;;;;;24.50;13.80;;;-0.30;99.90;-1.40;101111;;;;576659;245;24089;-75
2023/03/17 01:02:25;;;;;;;20.93;14.87;;;-0.30;99.90;-1.40;101117;;;;576523;245;24061;-75
2023/03/17 01:04:53;;;;;;;24.27;14.90;;;-0.30;99.90;-1.40;101122;;;;576692;245;24059;-75
2023/03/17 01:07:21;;;;;;;23.30;13.53;;;-0.30;99.90;-1.40;101114;;;;576650;245;24062;-74
2023/03/17 01:09:49;;;;;;;28.87;15.03;;;-0.30;99.90;-1.40;101111;;;;576796;245;24069;-81
2023/03/17 01:12:17;;;;;;;22.87;13.43;;;-0.20;99.90;-1.40;101121;;;;577053;245;24105;-78
2023/03/17 01:14:45;;;;;;;21.47;12.67;;;-0.20;99.90;-1.40;101107;;;;576994;245;24047;-75
2023/03/17 01:17:13;;;;;;;20.47;11.17;;;-0.20;99.90;-1.30;101106;;;;577113;245;24043;-75
2023/03/17 01:19:41;;;;;;;20.50;11.67;;;-0.20;99.90;-1.30;101094;;;;579408;245;24078;-78
2023/03/17 01:22:09;;;;;;;15.83;10.00;;;-0.20;99.90;-1.30;101093;;;;576803;245;24075;-76
2023/03/17 01:24:40;;;;;;;17.43;9.07;;;-0.10;99.90;-1.20;101089;;;;576761;245;24054;-77
2023/03/17 01:27:05;;;;;;;19.30;10.63;;;-0.10;99.90;-1.20;101085;;;;576282;245;24076;-80
2023/03/17 01:29:33;;;;;;;18.13;10.07;;;0.00;99.90;-1.10;101096;;;;576636;245;24074;-82
2023/03/17 01:32:01;;;;;;;19.97;11.03;;;0.00;99.90;-1.10;101100;;;;576963;244;24066;-83
2023/03/17 01:34:28;;;;;;;18.53;10.33;;;0.00;99.90;-1.10;101096;;;;578160;244;24104;-81
2023/03/17 01:36:57;;;;;;;22.53;11.13;;;0.00;99.90;-1.00;101087;;;;577730;244;24062;-77
2023/03/17 01:39:26;;;;;;;17.80;10.90;;;0.10;99.90;-1.00;101090;;;;577679;244;24076;-77
2023/03/17 01:41:55;;;;;;;15.77;9.33;;;0.10;99.90;-1.00;101087;;;;577577;243;24074;-82
2023/03/17 01:44:21;;;;;;;23.90;10.83;;;0.10;99.90;-1.00;101083;;;;577210;244;24073;-74
2023/03/17 01:46:48;;;;;;;23.57;11.00;;;0.10;99.90;-1.10;101070;;;;577343;244;24136;-75
2023/03/17 01:49:22;;;;;;;19.43;10.73;;;0.10;99.90;-1.10;101072;;;;577679;244;24066;-82
2023/03/17 01:52:09;;;;;;;19.93;10.60;;;0.00;99.90;-1.10;101086;;;;576893;245;24062;-82
2023/03/17 01:54:46;;;;;;;18.80;10.53;;;0.00;99.90;-1.10;101076;;;;576987;245;24059;-83
2023/03/17 01:57:16;;;;;;;20.47;10.87;;;0.00;99.90;-1.10;101081;;;;577108;245;24151;-84
2023/03/17 01:59:44;;;;;;;20.33;10.23;;;0.00;99.90;-1.10;101071;;;;576878;245;24115;-84
2023/03/17 02:02:11;;;;;;;19.52;9.60;;;0.00;99.90;-1.10;101076;;;;574234;245;35157;-84
2023/03/17 02:04:43;;;;;;;6.97;5.37;;;0.00;99.90;-1.10;101067;;;;574685;245;24090;-82
2023/03/17 02:07:10;;;;;;;13.03;5.47;;;0.00;99.90;-1.10;101064;;;;576599;245;24077;-78
2023/03/17 02:09:35;;;;;;;14.30;5.50;;;0.00;99.90;-1.10;101062;;;;576574;245;24062;-79
2023/03/17 02:12:04;;;;;;;13.90;6.33;;;0.00;99.90;-1.10;101066;;;;577032;244;24051;-75
2023/03/17 02:14:31;;;;;;;12.57;4.90;;;0.00;99.90;-1.10;101076;;;;585376;240;24051;-76
2023/03/17 02:17:00;;;;;;;16.63;8.30;;;0.00;99.90;-1.10;101073;;;;566322;249;24109;-76
2023/03/17 02:19:28;;;;;;;21.57;10.60;;;0.00;99.90;-1.10;101066;;;;576705;245;24046;-76
2023/03/17 02:21:56;;;;;;;15.67;8.73;;;0.10;99.90;-1.00;101071;;;;577093;245;24054;-78
2023/03/17 02:24:38;;;;;;;18.97;10.13;;;0.10;99.90;-1.00;101061;;;;585903;245;24074;-75
2023/03/17 02:27:28;;;;;;;21.07;10.83;;;0.10;99.90;-1.00;101063;;;;577118;243;24088;-74
2023/03/17 02:29:55;;;;;;;19.60;9.00;;;0.10;99.90;-1.00;101057;;;;576862;245;24070;-79
2023/03/17 02:32:23;;;;;;;17.77;10.20;;;0.10;99.90;-1.00;101054;;;;577136;243;24047;-74
2023/03/17 02:34:51;;;;;;;16.57;9.83;;;0.10;99.90;-1.00;101044;;;;577080;243;24082;-77
2023/03/17 02:37:19;;;;;;;21.08;13.40;;;0.10;99.90;-1.00;101042;;;;571944;245;45582;-75
2023/03/17 02:39:50;;;;;;;12.43;5.50;;;0.10;99.90;-0.90;101042;;;;577125;244;24100;-81
2023/03/17 02:42:16;;;;;;;11.40;5.60;;;0.20;99.90;-0.90;101040;;;;576715;245;24101;-81
2023/03/17 02:44:44;;;;;;;18.57;5.83;;;0.20;99.90;-0.90;101032;;;;578147;244;24045;-83
2023/03/17 02:47:12;;;;;;;10.33;5.63;;;0.20;99.90;-0.90;101044;;;;578233;244;24050;-82
2023/03/17 02:49:40;;;;;;;11.50;6.63;;;0.20;99.90;-0.90;101047;;;;586823;239;24078;-77
2023/03/17 02:52:08;;;;;;;23.27;10.48;;;0.20;99.90;-0.90;101046;;;;581488;244;35149;-82
2023/03/17 02:54:39;;;;;;;11.73;5.50;;;0.20;99.90;-0.90;101049;;;;577702;244;25121;-84
2023/03/17 02:57:04;;;;;;;9.07;5.13;;;0.20;99.90;-0.80;101051;;;;577148;244;25099;-84
2023/03/17 02:59:32;;;;;;;10.77;5.53;;;0.30;99.90;-0.90;101052;;;;573989;242;24056;-83
2023/03/17 03:02:00;;;;;;;11.67;6.47;;;0.30;99.90;-0.80;101048;;;;577000;245;24103;-82
2023/03/17 03:04:27;;;;;;;17.95;9.98;;;0.30;99.90;-0.80;101048;;;;571924;245;35138;-81
2023/03/17 03:06:56;;;;;;;17.17;7.30;;;0.30;99.90;-0.80;101054;;;;576925;245;24086;-81
2023/03/17 03:09:24;;;;;;;12.93;5.13;;;0.30;99.90;-0.80;101040;;;;577083;244;24058;-76
2023/03/17 03:11:51;;;;;;;14.50;6.07;;;0.30;99.90;-0.80;101038;;;;576992;243;24090;-78
2023/03/17 03:14:19;;;;;;;11.73;5.77;;;0.30;99.90;-0.80;101033;;;;577385;244;24049;-77
2023/03/17 03:16:47;;;;;;;15.67;6.60;;;0.30;99.90;-0.80;101037;;;;576805;243;24058;-82
2023/03/17 03:19:15;;;;;;;13.13;5.87;;;0.30;99.90;-0.80;101032;;;;576862;245;24061;-83
2023/03/17 03:21:43;;;;;;;10.07;6.40;;;0.30;99.90;-0.80;101033;;;;576787;245;24072;-83
2023/03/17 03:24:11;;;;;;;8.03;5.53;;;0.30;99.90;-0.80;101047;;;;577098;243;24096;-82
2023/03/17 03:26:40;;;;;;;11.90;6.10;;;0.30;99.90;-0.80;101052;;;;576999;240;24065;-79
2023/03/17 03:29:07;;;;;;;16.27;6.53;;;0.30;99.90;-0.80;101057;;;;576928;245;24071;-80
2023/03/17 03:31:35;;;;;;;8.97;5.77;;;0.30;99.90;-0.80;101044;;;;577057;245;24060;-79
2023/03/17 03:34:03;;;;;;;13.90;6.27;;;0.30;99.90;-0.80;101049;;;;577082;245;24070;-80
2023/03/17 03:36:32;;;;;;;15.80;7.07;;;0.30;99.90;-0.80;101048;;;;577052;245;24102;-75
2023/03/17 03:39:00;;;;;;;13.87;6.97;;;0.30;99.90;-0.80;101053;;;;576896;245;24074;-80
2023/03/17 03:41:28;;;;;;;13.53;7.20;;;0.30;99.90;-0.80;101060;;;;576932;244;24056;-79
2023/03/17 03:43:59;;;;;;;13.00;6.97;;;0.30;99.90;-0.80;101052;;;;576971;245;24039;-76
2023/03/17 03:46:25;;;;;;;15.63;6.93;;;0.40;99.90;-0.70;101061;;;;576601;245;24082;-78
2023/03/17 03:48:52;;;;;;;13.10;6.63;;;0.40;99.90;-0.70;101058;;;;576940;245;24074;-75
2023/03/17 03:51:20;;;;;;;12.73;7.30;;;0.40;99.90;-0.70;101057;;;;576962;245;24061;-76
2023/03/17 03:53:48;;;;;;;18.07;6.90;;;0.40;99.90;-0.70;101054;;;;577067;245;24048;-74
2023/03/17 03:56:17;;;;;;;12.60;7.07;;;0.40;99.90;-0.70;101053;;;;578123;244;24088;-75
2023/03/17 03:58:45;;;;;;;15.03;6.87;;;0.40;99.90;-0.70;101061;;;;577833;243;24068;-75
2023/03/17 04:01:13;;;;;;;15.53;6.30;;;0.40;99.90;-0.70;101054;;;;577411;244;24066;-76
2023/03/17 04:03:42;;;;;;;18.10;7.03;;;0.40;99.90;-0.70;101054;;;;577527;244;24123;-80
2023/03/17 04:06:10;;;;;;;15.10;6.67;;;0.40;99.90;-0.70;101051;;;;574060;244;24144;-79
2023/03/17 04:08:38;;;;;;;11.17;6.30;;;0.40;99.90;-0.70;101055;;;;577091;239;24069;-79
2023/03/17 04:11:06;;;;;;;11.27;6.53;;;0.40;99.90;-0.70;101047;;;;577211;244;24055;-78
2023/03/17 04:13:36;;;;;;;19.35;9.95;;;0.40;99.90;-0.70;101045;;;;572422;244;35216;-79
2023/03/17 04:16:02;;;;;;;10.53;7.33;;;0.50;99.90;-0.70;101049;;;;585749;240;24136;-77
2023/03/17 04:18:31;;;;;;;15.37;6.13;;;0.50;99.90;-0.60;101047;;;;576888;245;24135;-82
2023/03/17 04:21:00;;;;;;;10.97;4.80;;;0.50;99.90;-0.60;101037;;;;577043;245;24043;-81
2023/03/17 04:23:28;;;;;;;9.77;5.03;;;0.40;99.90;-0.60;101029;;;;573532;245;24054;-77
2023/03/17 04:25:55;;;;;;;9.07;4.87;;;0.50;99.90;-0.60;101028;;;;577181;243;24097;-79
2023/03/17 04:28:26;;;;;;;17.77;9.25;;;0.50;99.90;-0.60;101031;;;;572303;243;46051;-81
2023/03/17 04:30:51;;;;;;;22.48;11.68;;;0.50;99.90;-0.60;101028;;;;580830;245;35212;-83
2023/03/17 04:33:19;;;;;;;12.57;7.43;;;0.50;99.90;-0.60;101021;;;;577216;243;24073;-84
2023/03/17 04:35:47;;;;;;;11.23;6.13;;;0.50;99.90;-0.60;101022;;;;577195;245;24113;-84
2023/03/17 04:38:15;;;;;;;9.13;4.23;;;0.50;99.90;-0.60;101028;;;;577183;245;24055;-76
2023/03/17 04:40:43;;;;;;;19.40;7.17;;;0.50;99.90;-0.70;101031;;;;577121;243;24086;-75
2023/03/17 04:43:11;;;;;;;16.07;6.33;;;0.50;99.90;-0.70;101030;;;;577097;243;24043;-77
2023/03/17 04:45:39;;;;;;;10.33;6.60;;;0.40;99.90;-0.70;101027;;;;576999;240;24089;-76
2023/03/17 04:48:07;;;;;;;10.00;7.50;;;0.40;99.90;-0.70;101021;;;;577057;245;24051;-76
2023/03/17 04:50:35;;;;;;;21.27;7.40;;;0.40;99.90;-0.70;101016;;;;577037;245;24066;-79
2023/03/17 04:53:04;;;;;;;13.47;6.83;;;0.40;99.90;-0.70;101020;;;;576972;243;24090;-82
2023/03/17 04:55:32;;;;;;;19.83;9.87;;;0.40;99.90;-0.70;101020;;;;577046;243;24051;-78
2023/03/17 04:58:00;;;;;;;18.43;8.50;;;0.40;99.90;-0.60;101014;;;;576813;245;24070;-76
2023/03/17 05:00:28;;;;;;;21.13;8.47;;;0.40;99.90;-0.60;101010;;;;576564;245;24049;-75
2023/03/17 05:02:56;;;;;;;21.03;10.90;;;0.40;99.90;-0.70;101022;;;;576713;245;24078;-76
2023/03/17 05:05:24;;;;;;;22.43;12.67;;;0.40;99.90;-0.70;101021;;;;576583;243;24095;-74
2023/03/17 05:07:51;;;;;;;25.43;14.40;;;0.40;99.90;-0.70;101030;;;;577991;244;24060;-74
2023/03/17 05:10:19;;;;;;;23.27;13.73;;;0.40;99.90;-0.70;101017;;;;577778;244;24061;-75
2023/03/17 05:12:47;;;;;;;21.83;15.07;;;0.40;99.90;-0.70;101016;;;;577644;244;24057;-76
2023/03/17 05:15:15;;;;;;;28.40;16.80;;;0.40;99.90;-0.70;101019;;;;577443;244;24053;-75
2023/03/17 05:17:44;;;;;;;30.37;15.97;;;0.40;99.90;-0.70;101008;;;;577056;244;24108;-78
2023/03/17 05:20:12;;;;;;;27.53;16.00;;;0.30;99.90;-0.70;101006;;;;576679;244;24061;-75
2023/03/17 05:22:40;;;;;;;34.33;16.67;;;0.40;99.90;-0.70;101015;;;;585971;243;24084;-75
2023/03/17 05:25:08;;;;;;;25.33;16.87;;;0.40;99.90;-0.70;101012;;;;577490;245;24074;-75
2023/03/17 05:27:36;;;;;;;28.53;17.27;;;0.40;99.90;-0.70;101020;;;;586153;243;24048;-75
2023/03/17 05:30:03;;;;;;;25.87;16.80;;;0.40;99.90;-0.70;101016;;;;577179;245;24103;-74
2023/03/17 05:32:31;;;;;;;31.83;17.60;;;0.40;99.90;-0.60;101013;;;;577239;245;24044;-74
2023/03/17 05:35:00;;;;;;;36.37;16.67;;;0.40;99.90;-0.60;101002;;;;577310;245;24062;-76
2023/03/17 05:37:28;;;;;;;33.10;16.97;;;0.40;99.90;-0.60;101010;;;;577267;245;24056;-75
2023/03/17 05:39:55;;;;;;;30.63;17.80;;;0.40;99.90;-0.60;101009;;;;577153;245;24104;-74
2023/03/17 05:42:23;;;;;;;30.37;16.67;;;0.50;99.90;-0.60;101012;;;;577244;245;24057;-75
2023/03/17 05:44:51;;;;;;;28.20;16.27;;;0.50;99.90;-0.50;101017;;;;577021;245;24058;-74
2023/03/17 05:47:19;;;;;;;26.37;16.10;;;0.50;99.90;-0.50;101014;;;;576987;245;24058;-75
2023/03/17 05:49:47;;;;;;;33.03;17.20;;;0.60;99.90;-0.50;101015;;;;576880;245;24102;-75
2023/03/17 05:52:15;;;;;;;22.63;13.00;;;0.60;99.90;-0.40;101025;;;;576973;245;24070;-76
2023/03/17 05:54:43;;;;;;;25.77;13.37;;;0.70;99.90;-0.40;101013;;;;577135;245;24054;-75
2023/03/17 05:57:11;;;;;;;28.63;14.67;;;0.70;99.90;-0.30;101015;;;;576869;245;24058;-75
2023/03/17 05:59:39;;;;;;;22.27;11.33;;;0.80;99.90;-0.30;101017;;;;576534;245;24050;-73
2023/03/17 06:02:07;;;;;;;19.93;11.57;;;0.80;99.90;-0.20;101019;;;;576627;245;24116;-75
2023/03/17 06:04:35;;;;;;;25.50;12.77;;;0.90;99.90;-0.20;101016;;;;576523;245;24080;-75
2023/03/17 06:07:08;;;;;;;23.03;13.93;;;0.90;99.90;-0.10;101007;;;;576582;245;24087;-76
2023/03/17 06:09:35;;;;;;;26.57;14.03;;;0.90;99.90;-0.10;101009;;;;573322;245;24121;-75
2023/03/17 06:12:02;;;;;;;21.37;12.00;;;1.00;99.90;0.00;101014;;;;576689;245;24110;-76
2023/03/17 06:14:30;;;;;;;21.83;12.30;;;1.00;99.90;0.00;101004;;;;576700;244;24067;-76
2023/03/17 06:16:58;;;;;;;19.80;12.57;;;1.10;99.90;0.10;101014;;;;576565;245;24106;-75
2023/03/17 06:19:27;;;;;;;17.13;10.03;;;1.20;99.90;0.10;101021;;;;577737;244;24054;-76
2023/03/17 06:21:58;;;;;;;23.47;10.57;;;1.30;99.90;0.20;101015;;;;577682;244;24096;-75
2023/03/17 06:24:24;;;;;;;16.57;10.73;;;1.30;99.90;0.30;101022;;;;577229;244;24110;-74
2023/03/17 06:26:51;;;;;;;18.37;11.17;;;1.30;99.90;0.40;101018;;;;577915;244;24081;-81
2023/03/17 06:29:23;;;;;;;14.73;10.10;;;1.50;99.90;0.50;101009;;;;577597;244;25096;-84
2023/03/17 06:31:49;;;;;;;13.30;9.30;;;1.60;99.90;0.70;101022;;;;586037;240;24056;-78
2023/03/17 06:34:18;;;;;;;19.87;10.10;;;1.70;99.90;0.90;101009;;;;577569;244;24144;-83
2023/03/17 06:36:48;;;;;;;17.73;9.63;;;1.90;99.90;1.00;101017;;;;575370;245;24084;-76
2023/03/17 06:39:14;;;;;;;27.03;11.33;;;2.00;99.90;1.10;101019;;;;576892;245;24054;-75
2023/03/17 06:41:41;;;;;;;16.70;9.33;;;2.10;99.90;1.30;101011;;;;566957;249;24089;-75
2023/03/17 06:44:09;;;;;;;22.27;11.23;;;2.30;99.90;1.50;101018;;;;563327;248;24082;-74
2023/03/17 06:46:37;;;;;;;23.23;10.13;;;2.50;99.90;1.70;101016;;;;575062;249;24084;-74
2023/03/17 06:49:07;;;;;;;18.93;9.03;;;2.70;99.90;1.80;101002;;;;567115;249;24117;-77
2023/03/17 06:51:36;;;;;;;18.03;9.77;;;2.80;99.90;1.90;101019;;;;577264;245;24069;-75
2023/03/17 06:54:02;;;;;;;23.40;11.17;;;3.00;99.90;2.00;101024;;;;577220;245;24068;-76
2023/03/17 06:56:30;;;;;;;14.73;9.00;;;3.00;99.90;2.00;101031;;;;576994;243;24051;-84
2023/03/17 06:58:59;;;;;;;25.73;11.37;;;3.10;99.90;2.00;101028;;;;576824;244;24080;-81
2023/03/17 07:01:28;;;;;;;21.80;9.80;;;3.10;99.90;2.10;101036;;;;576631;245;24089;-79
2023/03/17 07:03:56;;;;;;;18.90;9.93;;;3.10;99.90;2.00;101032;;;;576553;245;24116;-77
2023/03/17 07:06:23;;;;;;;17.97;10.50;;;3.10;99.90;2.00;101051;;;;581090;241;24074;-82
2023/03/17 07:08:51;;;;;;;32.40;11.27;;;3.10;99.90;2.00;101035;;;;576638;245;24073;-75
2023/03/17 07:11:22;;;;;;;22.73;10.33;;;3.10;99.90;2.10;101037;;;;576780;245;24099;-76
2023/03/17 07:13:52;;;;;;;19.27;10.40;;;3.20;99.90;2.30;101038;;;;576655;245;24082;-85
2023/03/17 07:16:18;;;;;;;19.30;11.00;;;3.20;99.90;2.60;101040;;;;585473;245;24076;-82
2023/03/17 07:18:45;;;;;;;20.23;11.47;;;3.50;99.90;2.90;101038;;;;576728;245;24050;-82
2023/03/17 07:21:12;;;;;;;20.97;12.03;;;3.80;99.90;3.10;101042;;;;576769;245;24051;-78
2023/03/17 07:23:40;;;;;;;16.07;10.53;;;4.00;99.90;3.40;101030;;;;576749;245;24084;-81
2023/03/17 07:26:08;;;;;;;21.13;11.33;;;4.30;99.90;3.80;101030;;;;577112;245;24096;-80
2023/03/17 07:28:36;;;;;;;20.27;12.33;;;4.70;99.90;3.80;101032;;;;577240;245;24124;-80
2023/03/17 07:31:07;;;;;;;34.00;20.55;;;4.80;99.90;3.80;101025;;;;573164;244;35218;-76
2023/03/17 07:33:33;;;;;;;24.57;14.37;;;4.90;99.90;3.80;101036;;;;578049;244;24117;-74
2023/03/17 07:36:05;;;;;;;23.20;13.33;;;4.90;99.90;3.80;101024;;;;577906;244;24052;-74
2023/03/17 07:38:29;;;;;;;23.70;12.47;;;4.90;99.90;3.80;101025;;;;577534;244;24067;-79
2023/03/17 07:40:58;;;;;;;23.30;11.90;;;4.80;99.90;3.70;101023;;;;577554;244;24094;-76
2023/03/17 07:43:25;;;;;;;18.80;10.63;;;4.80;99.90;3.60;101021;;;;577409;244;24125;-79
2023/03/17 07:45:53;;;;;;;21.17;11.27;;;4.70;99.90;3.60;101014;;;;577162;244;24112;-77
2023/03/17 07:48:21;;;;;;;26.03;9.07;;;4.60;99.90;3.60;101012;;;;577080;245;24054;-81
2023/03/17 07:50:50;;;;;;;27.13;15.98;;;4.50;99.90;3.50;101009;;;;571736;245;35095;-81
2023/03/17 07:53:18;;;;;;;20.10;11.87;;;4.50;99.90;3.40;101018;;;;576937;243;24077;-76
2023/03/17 07:55:45;;;;;;;19.57;11.40;;;4.40;99.90;3.30;101009;;;;576868;245;24051;-75
2023/03/17 07:58:14;;;;;;;22.73;10.57;;;4.40;99.90;3.30;101003;;;;577009;244;24084;-74
2023/03/17 08:00:41;;;;;;;19.00;11.37;;;4.30;99.90;3.30;101001;;;;576938;245;24058;-76
2023/03/17 08:03:09;;;;;;;17.53;9.63;;;4.30;99.90;3.30;101009;;;;576825;244;24070;-79
2023/03/17 08:05:38;;;;;;;12.77;7.17;;;4.30;99.90;3.30;101005;;;;576907;245;24097;-84
2023/03/17 08:08:06;;;;;;;18.90;9.20;;;4.30;99.90;3.40;101015;;;;576694;245;24072;-77
2023/03/17 08:10:34;;;;;;;18.83;10.87;;;4.40;99.90;3.60;101010;;;;576717;245;24081;-75
2023/03/17 08:13:03;;;;;;;20.23;11.80;;;4.50;99.90;3.80;101004;;;;576725;244;24071;-78
2023/03/17 08:15:31;;;;;;;20.77;12.43;;;4.70;99.90;4.10;101002;;;;576752;243;24051;-77
2023/03/17 08:17:59;;;;;;;14.83;7.50;;;5.30;99.90;4.40;100994;;;;576639;245;24091;-79
2023/03/17 08:20:27;;;;;;;19.97;11.17;;;5.30;99.90;5.00;101002;;;;576614;244;24085;-73
2023/03/17 08:22:55;;;;;;;16.30;10.83;;;5.80;99.90;5.50;101002;;;;576660;245;24057;-74
2023/03/17 08:25:23;;;;;;;17.97;11.07;;;6.30;99.90;6.00;100997;;;;576622;245;24076;-74
2023/03/17 08:27:55;;;;;;;19.70;12.00;;;6.80;99.90;6.70;101002;;;;577009;245;24055;-76
2023/03/17 08:30:19;;;;;;;15.93;10.97;;;7.40;99.90;7.50;101004;;;;576739;245;24077;-78
2023/03/17 08:32:48;;;;;;;17.30;11.13;;;9.10;99.90;8.50;100998;;;;576864;245;24100;-75
2023/03/17 08:35:19;;;;;;;14.77;11.17;;;9.90;99.90;9.10;100984;;;;577046;244;24078;-75
2023/03/17 08:37:47;;;;;;;17.87;9.97;;;9.90;99.90;9.40;100979;;;;576599;244;24089;-77
2023/03/17 08:40:18;;;;;;;17.93;11.73;;;10.30;99.90;9.30;100976;;;;585922;243;24060;-76
2023/03/17 08:42:43;;;;;;;17.67;11.43;;;10.80;99.90;10.00;100973;;;;577747;239;24075;-76
2023/03/17 08:45:12;;;;;;;21.07;11.63;;;11.10;99.90;10.10;100982;;;;578110;244;24084;-75
2023/03/17 08:47:43;;;;;;;19.48;13.13;;;11.10;99.90;10.00;100983;;;;572858;244;35143;-76
2023/03/17 08:50:11;;;;;;;14.13;11.07;;;10.80;99.90;9.60;100978;;;;577600;244;24158;-77
2023/03/17 08:52:38;;;;;;;16.13;11.33;;;10.50;99.90;9.30;100979;;;;577418;244;25129;-80
2023/03/17 08:55:10;;;;;;;18.50;10.13;;;10.20;99.90;9.10;100977;;;;577509;244;25140;-75
2023/03/17 08:57:38;;;;;;;16.87;10.60;;;10.20;99.90;9.00;100972;;;;585988;244;24080;-77
2023/03/17 09:00:09;;;;;;;22.27;11.27;;;10.10;99.90;8.90;100961;;;;577042;245;24075;-77
2023/03/17 09:02:34;;;;;;;14.83;10.63;;;9.90;99.90;8.90;100970;;;;573152;245;24124;-76
2023/03/17 09:05:02;;;;;;;16.17;10.60;;;9.90;99.90;9.10;100961;;;;576891;245;24076;-76
2023/03/17 09:07:31;;;;;;;19.60;10.40;;;10.20;99.90;9.50;100980;;;;577193;245;24076;-77
2023/03/17 09:09:59;;;;;;;14.77;10.00;;;10.20;99.90;9.80;100971;;;;576695;245;24163;-74
2023/03/17 09:12:27;;;;;;;15.90;8.60;;;10.70;99.90;10.60;100965;;;;574633;245;24106;-76
2023/03/17 09:14:58;;;;;;;15.87;11.20;;;11.30;99.90;11.20;100962;;;;576803;245;24070;-75
2023/03/17 09:17:23;;;;;;;13.57;10.13;;;11.90;99.90;11.00;100965;;;;576560;244;24081;-76
2023/03/17 09:19:51;;;;;;;15.03;9.50;;;12.10;99.90;10.70;100960;;;;576697;245;24070;-75
2023/03/17 09:22:19;;;;;;;15.77;9.90;;;11.90;99.90;10.30;100950;;;;576625;245;24077;-76
2023/03/17 09:24:47;;;;;;;15.63;9.50;;;11.30;99.90;10.00;100966;;;;576310;245;24071;-76
2023/03/17 09:27:16;;;;;;;15.50;10.47;;;10.80;99.90;9.50;100961;;;;576536;245;24070;-77
2023/03/17 09:29:44;;;;;;;13.07;9.17;;;10.80;99.90;9.20;100961;;;;577018;245;24073;-74
2023/03/17 09:32:12;;;;;;;16.17;10.03;;;10.40;99.90;8.80;100954;;;;573731;245;24077;-76
2023/03/17 09:34:40;;;;;;;17.53;9.33;;;10.00;99.90;8.50;100957;;;;576988;245;24076;-77
2023/03/17 09:37:08;;;;;;;17.00;10.40;;;9.60;99.90;8.30;100950;;;;573564;245;24180;-76
2023/03/17 09:39:35;;;;;;;16.33;9.97;;;9.30;99.90;8.20;100958;;;;576845;245;24063;-77
2023/03/17 09:42:27;;;;;;;14.87;9.53;;;9.20;99.90;8.20;100953;;;;577018;245;24115;-75
2023/03/17 09:45:30;;;;;;;15.90;11.47;;;9.20;99.90;8.00;100948;;;;576818;245;24074;-75
2023/03/17 09:48:21;;;;;;;12.90;9.07;;;9.10;99.90;7.70;100953;;;;576957;245;24087;-75
2023/03/17 09:51:09;;;;;;;19.33;11.17;;;8.50;99.90;7.50;100956;;;;577053;245;24069;-76
2023/03/17 09:53:51;;;;;;;13.47;8.70;;;8.50;99.90;7.50;100944;;;;577705;244;24118;-77
2023/03/17 09:56:22;;;;;;;13.33;7.67;;;8.40;99.90;7.40;100936;;;;586847;240;24108;-76
2023/03/17 09:58:47;;;;;;;18.87;9.17;;;8.40;99.90;7.50;100937;;;;585997;244;24198;-76
2023/03/17 10:01:15;;;;;;;17.00;8.90;;;8.40;99.90;7.80;100932;;;;577081;244;24072;-76
2023/03/17 10:03:43;;;;;;;16.60;9.03;;;8.70;99.90;8.10;100916;;;;577311;244;24120;-76
2023/03/17 10:06:45;;;;;;;13.03;7.60;;;8.90;99.90;8.60;100916;;;;577090;244;24123;-75
2023/03/17 10:09:40;;;;;;;13.80;8.57;;;9.40;99.90;9.30;100922;;;;577479;244;24061;-77
2023/03/17 10:12:44;;;;;;;17.70;10.03;;;10.00;99.90;9.70;100926;;;;576844;240;24119;-76
2023/03/17 10:15:21;;;;;;;9.73;6.90;;;10.50;99.90;10.10;100918;;;;570815;245;24052;-77
2023/03/17 10:17:51;;;;;;;16.57;7.00;;;11.20;99.90;10.30;100910;;;;585567;245;24055;-76
2023/03/17 10:20:27;;;;;;;15.80;9.77;;;11.40;99.90;10.30;100893;;;;576852;244;24061;-74
2023/03/17 10:23:04;;;;;;;16.70;9.40;;;11.20;99.90;10.00;100875;;;;576751;245;24089;-75
2023/03/17 10:25:37;;;;;;;13.37;7.83;;;11.00;99.90;9.80;100874;;;;585770;244;24058;-76
2023/03/17 10:28:18;;;;;;;13.83;8.63;;;11.00;99.90;9.50;100861;;;;575209;239;24084;-75
2023/03/17 10:30:47;;;;;;;12.43;8.60;;;10.40;99.90;9.30;100867;;;;576607;245;24106;-75
2023/03/17 10:33:16;;;;;;;15.27;8.77;;;10.30;99.90;9.30;100861;;;;585928;243;24119;-76
2023/03/17 10:35:44;;;;;;;10.87;7.57;;;10.30;99.90;9.30;100862;;;;573246;245;24059;-76
2023/03/17 10:38:17;;;;;;;14.50;7.00;;;10.30;99.90;9.30;100854;;;;576515;243;24058;-77
2023/03/17 10:40:49;;;;;;;12.00;8.00;;;10.30;99.90;9.40;100843;;;;576470;245;24070;-75
2023/03/17 10:43:20;;;;;;;10.87;7.87;;;10.20;99.90;9.40;100851;;;;575972;245;24072;-77
2023/03/17 10:46:01;;;;;;;10.87;6.40;;;10.20;99.90;9.20;100843;;;;585584;243;24070;-76
2023/03/17 10:48:28;;;;;;;10.50;7.30;;;10.20;99.90;8.90;100838;;;;576380;245;24117;-77
2023/03/17 10:50:57;;;;;;;9.93;6.30;;;9.70;99.90;8.70;100820;;;;574304;245;24101;-77
2023/03/17 10:53:27;;;;;;;12.77;6.37;;;9.70;99.90;8.70;100831;;;;586189;245;24116;-75
2023/03/17 10:55:59;;;;;;;10.63;6.70;;;9.60;99.90;8.70;100823;;;;576578;244;24062;-76
2023/03/17 10:58:47;;;;;;;11.27;6.53;;;9.60;99.90;8.70;100818;;;;584653;245;24075;-75
2023/03/17 11:01:40;;;;;;;8.47;5.93;;;9.50;99.90;8.50;100817;;;;573621;245;24085;-76
2023/03/17 11:04:31;;;;;;;10.30;5.80;;;9.40;99.90;8.50;100807;;;;585604;243;24122;-76
2023/03/17 11:06:59;;;;;;;12.13;6.27;;;9.30;99.90;8.60;100818;;;;586989;243;24128;-76
2023/03/17 11:09:29;;;;;;;14.40;6.40;;;9.40;99.90;8.70;100811;;;;577467;244;24088;-78
2023/03/17 11:12:28;;;;;;;9.80;6.83;;;9.50;99.90;8.80;100813;;;;577114;243;24156;-76
2023/03/17 11:14:59;;;;;;;12.53;7.30;;;9.60;99.90;8.80;100813;;;;585529;244;24078;-78
2023/03/17 11:17:42;;;;;;;12.10;5.97;;;9.70;99.90;8.70;100801;;;;576985;244;24102;-75